createdAt,value
2022-10-06T00:01:06.912Z,3.78
2022-10-06T00:03:33.885Z,3.58
2022-10-06T00:06:03.142Z,4.00
2022-10-06T00:08:37.182Z,5.10
2022-10-06T00:11:04.856Z,2.92
2022-10-06T00:13:32.541Z,4.25
2022-10-06T00:16:00.537Z,4.68
2022-10-06T00:18:28.614Z,4.28
2022-10-06T00:21:00.787Z,5.85
2022-10-06T00:23:28.973Z,14.88
2022-10-06T00:25:55.844Z,18.95
2022-10-06T00:28:23.296Z,19.40
2022-10-06T00:30:53.572Z,17.30
2022-10-06T00:33:20.685Z,16.08
2022-10-06T00:35:48.536Z,19.90
2022-10-06T00:38:17.132Z,22.50
2022-10-06T00:40:49.808Z,31.05
2022-10-06T00:43:38.375Z,40.75
2022-10-06T00:46:07.311Z,38.63
2022-10-06T00:48:34.199Z,37.20
2022-10-06T00:51:00.938Z,31.40
2022-10-06T00:53:30.231Z,25.10
2022-10-06T00:55:57.463Z,27.73
2022-10-06T00:58:25.327Z,26.23
2022-10-06T01:00:54.693Z,25.13
2022-10-06T01:03:28.176Z,19.95
2022-10-06T01:05:57.731Z,20.17
2022-10-06T01:08:26.684Z,9.05
2022-10-06T01:10:54.025Z,13.75
2022-10-06T01:13:21.881Z,8.23
2022-10-06T01:15:59.999Z,12.32
2022-10-06T01:18:29.579Z,9.48
2022-10-06T01:21:31.547Z,12.35
2022-10-06T01:26:30.898Z,14.18
2022-10-06T01:28:58.474Z,8.48
2022-10-06T01:31:26.359Z,8.57
2022-10-06T01:33:54.804Z,14.27
2022-10-06T01:36:22.052Z,10.45
2022-10-06T01:38:51.015Z,8.65
2022-10-06T01:41:17.750Z,4.93
2022-10-06T01:43:44.400Z,3.25
2022-10-06T01:46:11.150Z,6.07
2022-10-06T01:48:37.858Z,4.50
2022-10-06T01:51:05.738Z,5.55
2022-10-06T01:53:32.413Z,3.38
2022-10-06T01:55:59.786Z,3.63
2022-10-06T01:58:28.687Z,5.43
2022-10-06T02:00:55.911Z,6.53
2022-10-06T02:03:22.643Z,4.82
2022-10-06T02:05:49.333Z,6.53
2022-10-06T02:08:16.212Z,5.10
2022-10-06T02:10:43.681Z,6.03
2022-10-06T02:13:17.859Z,5.40
2022-10-06T02:15:46.140Z,5.75
2022-10-06T02:18:13.025Z,4.72
2022-10-06T02:20:40.441Z,6.85
2022-10-06T02:23:07.122Z,5.60
2022-10-06T02:25:33.848Z,4.38
2022-10-06T02:28:00.656Z,4.70
2022-10-06T02:30:27.702Z,4.72
2022-10-06T02:32:55.552Z,4.53
2022-10-06T02:35:22.794Z,4.70
2022-10-06T02:37:49.756Z,3.97
2022-10-06T02:40:18.880Z,4.25
2022-10-06T02:42:46.021Z,2.80
2022-10-06T02:45:16.565Z,2.85
2022-10-06T02:47:44.009Z,4.78
2022-10-06T02:50:11.368Z,2.65
2022-10-06T02:52:41.170Z,3.22
2022-10-06T02:55:09.350Z,4.70
2022-10-06T02:57:36.668Z,4.75
2022-10-06T03:00:07.375Z,3.30
2022-10-06T03:02:34.734Z,2.53
2022-10-06T03:05:01.758Z,3.28
2022-10-06T03:07:28.508Z,3.15
2022-10-06T03:09:55.423Z,2.13
2022-10-06T03:12:24.554Z,4.20
2022-10-06T03:14:52.016Z,4.00
2022-10-06T03:17:19.346Z,3.25
2022-10-06T03:19:51.080Z,3.38
2022-10-06T03:22:17.972Z,3.75
2022-10-06T03:24:52.063Z,2.47
2022-10-06T03:27:18.898Z,2.30
2022-10-06T03:29:46.060Z,3.60
2022-10-06T03:32:13.875Z,4.15
2022-10-06T03:34:42.435Z,3.45
2022-10-06T03:37:12.506Z,5.47
2022-10-06T03:39:39.167Z,4.35
2022-10-06T03:42:05.994Z,2.63
2022-10-06T03:44:35.014Z,3.97
2022-10-06T03:47:02.694Z,5.30
2022-10-06T03:49:30.680Z,4.18
2022-10-06T03:51:57.370Z,2.45
2022-10-06T03:54:27.977Z,6.07
2022-10-06T03:56:55.603Z,3.17
2022-10-06T03:59:22.267Z,3.55
2022-10-06T04:01:53.061Z,3.58
2022-10-06T04:04:38.357Z,2.72
2022-10-06T04:07:09.418Z,10.07
2022-10-06T04:09:36.791Z,9.48
2022-10-06T04:12:03.668Z,22.67
2022-10-06T04:14:32.800Z,41.95
2022-10-06T04:17:01.599Z,76.05
2022-10-06T04:19:34.791Z,64.55
2022-10-06T04:22:02.377Z,30.90
2022-10-06T04:24:30.004Z,29.13
2022-10-06T04:27:18.122Z,33.88
2022-10-06T04:29:51.500Z,19.90
2022-10-06T04:32:18.198Z,14.77
2022-10-06T04:34:44.946Z,15.95
2022-10-06T04:37:12.108Z,12.57
2022-10-06T04:39:40.185Z,12.45
2022-10-06T04:42:08.056Z,9.07
2022-10-06T04:44:34.845Z,7.47
2022-10-06T04:47:04.390Z,8.20
2022-10-06T04:49:31.814Z,8.30
2022-10-06T04:51:58.803Z,11.43
2022-10-06T04:54:30.064Z,8.45
2022-10-06T04:57:00.125Z,9.13
2022-10-06T04:59:48.612Z,6.30
2022-10-06T05:02:16.977Z,7.20
2022-10-06T05:04:45.468Z,5.30
2022-10-06T05:07:14.018Z,8.20
2022-10-06T05:09:41.220Z,7.53
2022-10-06T05:12:10.213Z,7.43
2022-10-06T05:14:37.139Z,8.20
2022-10-06T05:17:04.362Z,6.75
2022-10-06T05:19:31.669Z,7.88
2022-10-06T05:21:58.373Z,9.40
2022-10-06T05:24:28.191Z,7.13
2022-10-06T05:26:58.317Z,6.90
2022-10-06T05:29:27.948Z,6.32
2022-10-06T05:31:55.628Z,6.57
2022-10-06T05:34:22.736Z,6.28
2022-10-06T05:36:50.988Z,12.77
2022-10-06T05:39:17.672Z,10.45
2022-10-06T05:41:48.736Z,31.90
2022-10-06T05:44:15.382Z,18.85
2022-10-06T05:46:43.809Z,21.55
2022-10-06T05:49:12.737Z,10.13
2022-10-06T05:51:44.727Z,15.15
2022-10-06T05:54:18.211Z,10.65
2022-10-06T05:56:44.872Z,7.13
2022-10-06T05:59:11.604Z,6.63
2022-10-06T06:01:43.427Z,9.20
2022-10-06T06:04:17.430Z,3.05
2022-10-06T06:06:50.743Z,4.10
2022-10-06T06:09:21.646Z,4.45
2022-10-06T06:11:54.173Z,6.57
2022-10-06T06:14:48.678Z,6.30
2022-10-06T06:17:19.873Z,4.25
2022-10-06T06:19:47.023Z,4.75
2022-10-06T06:22:15.229Z,4.50
2022-10-06T06:24:44.065Z,7.60
2022-10-06T06:27:11.084Z,4.40
2022-10-06T06:29:40.167Z,4.55
2022-10-06T06:32:09.670Z,6.35
2022-10-06T06:34:37.078Z,3.97
2022-10-06T06:37:08.481Z,4.85
2022-10-06T06:39:35.584Z,4.45
2022-10-06T06:42:04.736Z,5.38
2022-10-06T06:44:48.965Z,4.03
2022-10-06T06:47:26.827Z,4.88
2022-10-06T06:49:55.153Z,4.15
2022-10-06T06:52:26.158Z,4.80
2022-10-06T06:54:53.496Z,5.80
2022-10-06T06:57:20.199Z,6.97
2022-10-06T06:59:49.653Z,6.57
2022-10-06T07:02:17.937Z,5.75
2022-10-06T07:04:46.169Z,7.43
2022-10-06T07:07:16.084Z,6.25
2022-10-06T07:09:42.732Z,4.80
2022-10-06T07:12:12.041Z,4.47
2022-10-06T07:15:03.452Z,4.15
2022-10-06T07:17:53.326Z,5.47
2022-10-06T07:20:40.381Z,4.80
2022-10-06T07:23:34.612Z,3.70
2022-10-06T07:26:03.172Z,5.65
2022-10-06T07:28:32.745Z,5.88
2022-10-06T07:31:01.050Z,5.43
2022-10-06T07:33:32.432Z,6.85
2022-10-06T07:36:02.168Z,6.47
2022-10-06T07:38:30.685Z,6.97
2022-10-06T07:41:18.449Z,6.22
2022-10-06T07:43:48.039Z,5.25
2022-10-06T07:46:15.876Z,8.82
2022-10-06T07:48:49.076Z,8.35
2022-10-06T07:51:18.982Z,6.03
2022-10-06T07:53:50.881Z,6.07
2022-10-06T07:56:44.182Z,5.20
2022-10-06T07:59:10.943Z,5.63
2022-10-06T08:01:39.151Z,7.47
2022-10-06T08:04:07.165Z,6.00
2022-10-06T08:06:34.516Z,7.25
2022-10-06T08:09:01.877Z,5.95
2022-10-06T08:11:28.686Z,4.18
2022-10-06T08:13:55.469Z,3.85
2022-10-06T08:16:24.701Z,5.43
2022-10-06T08:18:55.027Z,4.47
2022-10-06T08:21:22.767Z,4.07
2022-10-06T08:23:51.300Z,2.97
2022-10-06T08:26:19.762Z,4.57
2022-10-06T08:28:51.864Z,6.32
2022-10-06T08:31:21.672Z,5.90
2022-10-06T08:33:49.566Z,6.72
2022-10-06T08:36:20.131Z,3.55
2022-10-06T08:38:50.210Z,6.47
2022-10-06T08:41:26.178Z,10.88
2022-10-06T08:44:18.697Z,7.55
2022-10-06T08:46:57.321Z,5.82
2022-10-06T08:49:28.339Z,6.18
2022-10-06T08:52:03.433Z,7.93
2022-10-06T08:54:50.495Z,4.82
2022-10-06T08:57:25.976Z,3.97
2022-10-06T08:59:55.679Z,5.20
2022-10-06T09:02:28.415Z,9.07
2022-10-06T09:04:59.028Z,5.43
2022-10-06T09:07:32.108Z,5.47
2022-10-06T09:10:39.541Z,4.40
2022-10-06T09:13:11.434Z,5.85
2022-10-06T09:15:41.288Z,4.50
2022-10-06T09:18:22.803Z,3.70
2022-10-06T09:20:57.303Z,5.45
2022-10-06T09:23:43.571Z,5.43
2022-10-06T09:26:16.548Z,4.90
2022-10-06T09:28:46.456Z,3.45
2022-10-06T09:31:21.639Z,4.45
2022-10-06T09:33:51.537Z,3.28
2022-10-06T09:36:18.182Z,6.75
2022-10-06T09:38:59.480Z,6.20
2022-10-06T09:41:45.875Z,4.68
2022-10-06T09:44:25.458Z,4.43
2022-10-06T09:46:52.550Z,3.63
2022-10-06T09:49:23.430Z,5.18
2022-10-06T09:52:09.930Z,5.63
2022-10-06T09:54:38.710Z,4.28
2022-10-06T09:57:20.082Z,6.28
2022-10-06T09:59:47.836Z,2.83
2022-10-06T10:02:25.010Z,5.43
2022-10-06T10:04:54.858Z,3.72
2022-10-06T10:07:26.707Z,4.82
2022-10-06T10:12:24.961Z,5.97
2022-10-06T10:14:52.696Z,12.30
2022-10-06T10:17:51.792Z,3.22
2022-10-06T10:20:25.415Z,3.42
2022-10-06T10:22:53.950Z,2.58
2022-10-06T10:25:33.491Z,4.35
2022-10-06T10:28:17.527Z,6.35
2022-10-06T10:30:55.470Z,2.55
2022-10-06T10:33:43.213Z,4.10
2022-10-06T10:36:17.909Z,4.55
2022-10-06T10:38:46.430Z,4.47
2022-10-06T10:41:13.351Z,3.30
2022-10-06T10:43:53.843Z,5.32
2022-10-06T10:46:28.796Z,4.75
2022-10-06T10:48:58.230Z,2.97
2022-10-06T10:51:47.987Z,3.08
2022-10-06T10:54:19.625Z,3.75
2022-10-06T10:56:49.257Z,13.15
2022-10-06T10:59:30.925Z,3.00
2022-10-06T11:02:04.764Z,2.15
2022-10-06T11:04:31.728Z,3.00
2022-10-06T11:07:21.262Z,4.00
2022-10-06T11:09:56.898Z,8.27
2022-10-06T11:12:34.034Z,3.90
2022-10-06T11:15:10.946Z,4.07
2022-10-06T11:17:44.660Z,3.40
2022-10-06T11:20:33.454Z,3.65
2022-10-06T11:23:12.493Z,3.10
2022-10-06T11:25:51.393Z,2.95
2022-10-06T11:28:28.730Z,4.57
2022-10-06T11:31:22.824Z,3.80
2022-10-06T11:33:51.614Z,3.13
2022-10-06T11:36:53.753Z,3.42
2022-10-06T11:39:27.190Z,3.40
2022-10-06T11:42:02.831Z,2.63
2022-10-06T11:44:47.525Z,5.15
2022-10-06T11:47:34.979Z,4.38
2022-10-06T11:50:02.980Z,3.13
2022-10-06T11:52:29.615Z,5.85
2022-10-06T11:55:08.957Z,2.40
2022-10-06T11:58:37.295Z,4.65
2022-10-06T12:00:58.943Z,4.45
2022-10-06T12:03:28.640Z,4.05
2022-10-06T12:05:56.831Z,5.30
2022-10-06T12:08:37.486Z,3.28
2022-10-06T12:11:40.390Z,5.68
2022-10-06T12:16:00.048Z,3.15
2022-10-06T12:17:40.633Z,4.00
2022-10-06T12:20:21.094Z,4.28
2022-10-06T12:22:52.555Z,4.32
2022-10-06T12:25:32.643Z,3.95
2022-10-06T12:28:30.503Z,3.67
2022-10-06T12:31:17.935Z,3.72
2022-10-06T12:33:45.629Z,2.67
2022-10-06T12:36:22.987Z,4.57
2022-10-06T12:39:02.505Z,3.28
2022-10-06T12:42:17.516Z,5.43
2022-10-06T12:44:51.694Z,5.72
2022-10-06T12:47:37.212Z,3.88
2022-10-06T12:50:14.870Z,4.63
2022-10-06T12:53:05.564Z,6.70
2022-10-06T12:55:38.247Z,5.07
2022-10-06T12:58:04.983Z,4.28
2022-10-06T13:00:42.962Z,4.55
2022-10-06T13:03:27.309Z,2.95
2022-10-06T13:05:57.756Z,4.93
2022-10-06T13:08:28.714Z,4.88
2022-10-06T13:11:20.708Z,3.63
2022-10-06T13:13:50.259Z,4.63
2022-10-06T13:16:29.096Z,4.93
2022-10-06T13:18:58.706Z,3.83
2022-10-06T13:21:26.273Z,4.60
2022-10-06T13:23:53.171Z,3.72
2022-10-06T13:26:27.592Z,3.88
2022-10-06T13:28:56.414Z,3.40
2022-10-06T13:31:35.046Z,4.28
2022-10-06T13:34:04.834Z,6.22
2022-10-06T13:36:35.598Z,3.58
2022-10-06T13:39:06.908Z,4.60
2022-10-06T13:41:38.052Z,2.72
2022-10-06T13:44:19.091Z,4.25
2022-10-06T13:46:49.227Z,4.05
2022-10-06T13:49:31.202Z,3.42
2022-10-06T13:54:40.974Z,2.55
2022-10-06T13:57:32.785Z,4.88
2022-10-06T14:00:26.939Z,2.22
2022-10-06T14:02:56.129Z,5.53
2022-10-06T14:05:36.939Z,4.10
2022-10-06T14:08:09.621Z,3.47
2022-10-06T14:10:48.479Z,4.07
2022-10-06T14:13:20.051Z,4.72
2022-10-06T14:15:53.380Z,4.55
2022-10-06T14:18:23.382Z,3.47
2022-10-06T14:20:54.801Z,2.47
2022-10-06T14:23:40.036Z,4.45
2022-10-06T14:26:07.435Z,1.42
2022-10-06T14:28:34.374Z,3.08
2022-10-06T14:31:01.185Z,4.63
2022-10-06T14:33:27.922Z,2.17
2022-10-06T14:35:54.569Z,4.45
2022-10-06T14:38:21.710Z,3.17
2022-10-06T14:40:48.345Z,3.00
2022-10-06T14:43:15.073Z,2.28
2022-10-06T14:45:43.189Z,4.00
2022-10-06T14:48:10.994Z,3.90
2022-10-06T14:50:37.883Z,4.18
2022-10-06T14:53:04.949Z,3.38
2022-10-06T14:55:31.661Z,2.78
2022-10-06T14:57:58.441Z,3.70
2022-10-06T15:00:28.491Z,3.85
2022-10-06T15:02:56.443Z,2.28
2022-10-06T15:05:23.895Z,1.83
2022-10-06T15:08:09.741Z,2.92
2022-10-06T15:10:38.787Z,4.03
2022-10-06T15:13:08.523Z,3.47
2022-10-06T15:15:36.164Z,2.40
2022-10-06T15:18:03.731Z,2.80
2022-10-06T15:20:30.515Z,3.70
2022-10-06T15:22:57.376Z,4.45
2022-10-06T15:25:42.641Z,3.40
2022-10-06T15:28:32.005Z,2.75
2022-10-06T15:30:58.991Z,4.05
2022-10-06T15:33:28.241Z,1.88
2022-10-06T15:36:28.746Z,3.17
2022-10-06T15:38:57.074Z,5.05
2022-10-06T15:41:24.263Z,2.83
2022-10-06T15:43:56.248Z,3.55
2022-10-06T15:49:14.896Z,2.90
2022-10-06T15:51:49.546Z,2.10
2022-10-06T15:54:22.328Z,2.20
2022-10-06T15:56:51.503Z,1.58
2022-10-06T15:59:24.173Z,3.00
2022-10-06T16:02:15.870Z,4.60
2022-10-06T16:04:44.039Z,3.60
2022-10-06T16:07:14.050Z,1.60
2022-10-06T16:09:43.758Z,2.67
2022-10-06T16:12:16.293Z,2.17
2022-10-06T16:14:43.495Z,1.98
2022-10-06T16:17:11.506Z,6.10
2022-10-06T16:19:40.049Z,3.65
2022-10-06T16:22:08.674Z,2.15
2022-10-06T16:24:35.350Z,2.33
2022-10-06T16:27:02.654Z,2.75
2022-10-06T16:29:29.350Z,3.33
2022-10-06T16:31:56.321Z,2.22
2022-10-06T16:34:23.399Z,4.22
2022-10-06T16:36:50.095Z,2.50
2022-10-06T16:39:21.747Z,2.33
2022-10-06T16:41:49.425Z,2.65
2022-10-06T16:44:16.548Z,2.70
2022-10-06T16:46:43.852Z,1.20
2022-10-06T16:49:11.024Z,3.15
2022-10-06T16:51:40.116Z,4.18
2022-10-06T16:54:12.245Z,4.93
2022-10-06T16:56:43.845Z,2.13
2022-10-06T16:59:14.928Z,3.90
2022-10-06T17:01:42.058Z,1.90
2022-10-06T17:04:14.644Z,3.45
2022-10-06T17:06:44.156Z,2.80
2022-10-06T17:09:15.883Z,2.17
2022-10-06T17:11:45.245Z,4.47
2022-10-06T17:14:12.756Z,4.43
2022-10-06T17:16:41.903Z,3.65
2022-10-06T17:19:10.822Z,3.90
2022-10-06T17:21:46.171Z,3.85
2022-10-06T17:24:14.018Z,3.83
2022-10-06T17:26:42.690Z,3.17
2022-10-06T17:29:14.083Z,5.13
2022-10-06T17:31:42.517Z,4.95
2022-10-06T17:34:12.417Z,2.28
2022-10-06T17:36:40.564Z,2.67
2022-10-06T17:39:10.623Z,2.42
2022-10-06T17:41:40.544Z,2.42
2022-10-06T17:44:23.728Z,2.40
2022-10-06T17:46:53.914Z,3.20
2022-10-06T17:49:23.896Z,6.47
2022-10-06T17:51:54.586Z,2.50
2022-10-06T17:54:24.011Z,4.75
2022-10-06T17:56:55.170Z,3.67
2022-10-06T17:59:25.104Z,5.60
2022-10-06T18:01:56.396Z,2.38
2022-10-06T18:04:24.218Z,2.22
2022-10-06T18:06:53.236Z,5.38
2022-10-06T18:09:20.375Z,3.88
2022-10-06T18:11:55.593Z,3.10
2022-10-06T18:14:25.765Z,5.78
2022-10-06T18:16:59.126Z,2.92
2022-10-06T18:19:35.874Z,2.88
2022-10-06T18:22:10.328Z,2.22
2022-10-06T18:24:38.736Z,3.75
2022-10-06T18:27:06.525Z,3.55
2022-10-06T18:29:36.838Z,2.83
2022-10-06T18:37:39.066Z,3.65
2022-10-06T18:40:08.844Z,5.65
2022-10-06T18:42:35.946Z,2.40
2022-10-06T18:45:21.197Z,4.05
2022-10-06T18:48:06.451Z,5.95
2022-10-06T18:50:33.455Z,2.88
2022-10-06T18:53:00.143Z,10.25
2022-10-06T18:55:27.900Z,4.07
2022-10-06T18:57:54.611Z,2.35
2022-10-06T19:00:21.387Z,3.85
2022-10-06T19:02:52.144Z,3.95
2022-10-06T19:05:19.074Z,4.05
2022-10-06T19:07:46.184Z,3.67
2022-10-06T19:10:12.995Z,3.70
2022-10-06T19:12:39.787Z,3.17
2022-10-06T19:15:06.697Z,4.60
2022-10-06T19:17:33.946Z,4.18
2022-10-06T19:20:00.619Z,4.88
2022-10-06T19:22:27.328Z,5.65
2022-10-06T19:24:53.987Z,7.28
2022-10-06T19:27:25.001Z,3.47
2022-10-06T19:29:54.342Z,4.90
2022-10-06T19:32:28.075Z,5.45
2022-10-06T19:34:58.941Z,4.75
2022-10-06T19:37:28.260Z,4.15
2022-10-06T19:39:55.169Z,8.98
2022-10-06T19:42:40.302Z,5.45
2022-10-06T19:45:08.469Z,3.33
2022-10-06T19:47:35.449Z,4.35
2022-10-06T19:50:08.720Z,6.85
2022-10-06T19:52:38.257Z,4.82
2022-10-06T19:55:05.425Z,4.78
2022-10-06T19:57:32.625Z,3.83
2022-10-06T19:59:59.296Z,5.38
2022-10-06T20:02:26.070Z,6.60
2022-10-06T20:04:52.724Z,5.88
2022-10-06T20:07:21.850Z,3.60
2022-10-06T20:09:49.027Z,3.25
2022-10-06T20:12:18.709Z,3.00
2022-10-06T20:14:46.398Z,3.80
2022-10-06T20:17:13.085Z,3.92
2022-10-06T20:19:40.129Z,2.95
2022-10-06T20:22:06.952Z,4.50
2022-10-06T20:24:33.974Z,3.22
2022-10-06T20:27:00.676Z,2.58
2022-10-06T20:29:28.509Z,5.72
2022-10-06T20:31:58.381Z,5.10
2022-10-06T20:34:31.816Z,4.28
2022-10-06T20:37:01.884Z,3.55
2022-10-06T20:39:50.893Z,5.60
2022-10-06T20:42:19.799Z,6.50
2022-10-06T20:44:47.681Z,3.10
2022-10-06T20:47:19.735Z,6.80
2022-10-06T20:49:46.918Z,3.33
2022-10-06T20:52:16.403Z,4.68
2022-10-06T20:54:43.322Z,2.55
2022-10-06T20:57:10.008Z,5.65
2022-10-06T20:59:37.853Z,3.25
2022-10-06T21:02:05.578Z,3.80
2022-10-06T21:04:32.757Z,4.40
2022-10-06T21:06:59.683Z,4.80
2022-10-06T21:09:28.934Z,2.42
2022-10-06T21:11:57.621Z,7.03
2022-10-06T21:14:26.096Z,4.55
2022-10-06T21:16:53.246Z,6.80
2022-10-06T21:19:20.440Z,5.85
2022-10-06T21:21:52.068Z,2.72
2022-10-06T21:24:19.970Z,3.15
2022-10-06T21:26:47.293Z,4.07
2022-10-06T21:29:15.915Z,3.95
2022-10-06T21:31:44.710Z,5.32
2022-10-06T21:34:14.492Z,3.17
2022-10-06T21:36:43.549Z,4.35
2022-10-06T21:39:11.543Z,4.75
2022-10-06T21:41:40.325Z,3.70
2022-10-06T21:44:11.836Z,5.80
2022-10-06T21:46:40.004Z,2.85
2022-10-06T21:49:12.950Z,4.93
2022-10-06T21:51:43.461Z,3.55
2022-10-06T21:54:10.679Z,3.17
2022-10-06T21:56:38.864Z,2.63
2022-10-06T21:59:06.558Z,4.10
2022-10-06T22:01:38.903Z,3.90
2022-10-06T22:04:06.569Z,4.47
2022-10-06T22:06:36.237Z,2.28
2022-10-06T22:09:06.008Z,5.88
2022-10-06T22:11:36.111Z,7.13
2022-10-06T22:14:05.640Z,3.58
2022-10-06T22:16:34.676Z,5.32
2022-10-06T22:19:03.380Z,2.38
2022-10-06T22:21:33.374Z,3.30
2022-10-06T22:24:02.765Z,3.25
2022-10-06T22:26:31.315Z,3.20
2022-10-06T22:28:59.275Z,3.28
2022-10-06T22:31:27.804Z,4.32
2022-10-06T22:33:59.438Z,4.95
2022-10-06T22:36:28.115Z,3.08
2022-10-06T22:38:56.471Z,7.70
2022-10-06T22:41:28.843Z,5.80
2022-10-06T22:43:58.036Z,2.47
2022-10-06T22:46:26.925Z,2.75
2022-10-06T22:48:54.378Z,6.10
2022-10-06T22:51:22.030Z,2.97
2022-10-06T22:53:58.265Z,4.15
2022-10-06T22:56:27.982Z,3.00
2022-10-06T22:59:00.140Z,3.33
2022-10-06T23:01:28.933Z,6.82
2022-10-06T23:03:57.113Z,5.65
2022-10-06T23:06:25.439Z,3.75
2022-10-06T23:08:53.100Z,6.05
2022-10-06T23:11:22.910Z,3.35
2022-10-06T23:13:50.766Z,4.97
2022-10-06T23:16:19.566Z,2.83
2022-10-06T23:18:48.142Z,3.70
2022-10-06T23:21:23.313Z,1.77
2022-10-06T23:23:53.508Z,6.68
2022-10-06T23:26:22.279Z,6.38
2022-10-06T23:28:58.741Z,2.88
2022-10-06T23:31:26.720Z,6.35
2022-10-06T23:33:55.317Z,4.45
2022-10-06T23:36:22.488Z,2.95
2022-10-06T23:38:49.443Z,3.97
2022-10-06T23:41:16.933Z,5.07
2022-10-06T23:43:43.971Z,6.80
2022-10-06T23:46:11.531Z,4.65
2022-10-06T23:48:39.598Z,3.22
2022-10-06T23:51:08.957Z,3.80
2022-10-06T23:53:36.701Z,3.83
2022-10-06T23:56:05.161Z,4.18
2022-10-06T23:58:32.375Z,6.28
